sensor_id;sensor_type;location;lat;lon;timestamp;pressure;altitude;pressure_sealevel;temperature;humidity
70521;BME280;58442;52.716;23.560;2023-09-19T00:00:41;101031.09;;;17.71;75.17
70521;BME280;58442;52.716;23.560;2023-09-19T00:02:54;101032.61;;;17.69;75.20
70521;BME280;58442;52.716;23.560;2023-09-19T00:05:04;101039.29;;;17.68;75.23
70521;BME280;58442;52.716;23.560;2023-09-19T00:07:06;101033.41;;;17.66;75.28
70521;BME280;58442;52.716;23.560;2023-09-19T00:09:07;101034.95;;;17.63;75.35
70521;BME280;58442;52.716;23.560;2023-09-19T00:11:12;101026.70;;;17.63;75.38
70521;BME280;58442;52.716;23.560;2023-09-19T00:13:19;101023.95;;;17.63;75.35
70521;BME280;58442;52.716;23.560;2023-09-19T00:15:20;101022.39;;;17.62;75.35
70521;BME280;58442;52.716;23.560;2023-09-19T00:17:22;101020.41;;;17.63;75.34
70521;BME280;58442;52.716;23.560;2023-09-19T00:19:23;101023.95;;;17.60;75.33
70521;BME280;58442;52.716;23.560;2023-09-19T00:21:33;101023.17;;;17.59;75.38
70521;BME280;58442;52.716;23.560;2023-09-19T00:23:37;101009.83;;;17.58;75.38
70521;BME280;58442;52.716;23.560;2023-09-19T00:25:38;101018.06;;;17.58;75.37
70521;BME280;58442;52.716;23.560;2023-09-19T00:27:41;101018.43;;;17.56;75.36
70521;BME280;58442;52.716;23.560;2023-09-19T00:29:48;101016.09;;;17.55;75.37
70521;BME280;58442;52.716;23.560;2023-09-19T00:31:50;101011.37;;;17.52;75.40
70521;BME280;58442;52.716;23.560;2023-09-19T00:33:51;101011.76;;;17.50;75.44
70521;BME280;58442;52.716;23.560;2023-09-19T00:35:56;101005.06;;;17.47;75.50
70521;BME280;58442;52.716;23.560;2023-09-19T00:38:05;101002.72;;;17.46;75.54
70521;BME280;58442;52.716;23.560;2023-09-19T00:40:09;101003.11;;;17.44;75.59
70521;BME280;58442;52.716;23.560;2023-09-19T00:42:22;101001.14;;;17.45;75.59
70521;BME280;58442;52.716;23.560;2023-09-19T00:44:24;100998.40;;;17.45;75.52
70521;BME280;58442;52.716;23.560;2023-09-19T00:46:25;100993.68;;;17.45;75.51
70521;BME280;58442;52.716;23.560;2023-09-19T00:48:27;100999.57;;;17.44;75.49
70521;BME280;58442;52.716;23.560;2023-09-19T00:50:30;100993.66;;;17.42;75.54
70521;BME280;58442;52.716;23.560;2023-09-19T00:52:37;100992.48;;;17.39;75.60
70521;BME280;58442;52.716;23.560;2023-09-19T00:54:39;100989.73;;;17.39;75.63
70521;BME280;58442;52.716;23.560;2023-09-19T00:56:41;100981.49;;;17.39;75.68
70521;BME280;58442;52.716;23.560;2023-09-19T00:58:44;100984.23;;;17.39;75.67
70521;BME280;58442;52.716;23.560;2023-09-19T01:00:48;100986.98;;;17.39;75.68
70521;BME280;58442;52.716;23.560;2023-09-19T01:02:50;100977.17;;;17.38;75.66
70521;BME280;58442;52.716;23.560;2023-09-19T01:04:51;100980.70;;;17.39;75.67
70521;BME280;58442;52.716;23.560;2023-09-19T01:06:54;100973.24;;;17.39;75.67
70521;BME280;58442;52.716;23.560;2023-09-19T01:08:56;100967.36;;;17.37;75.65
70521;BME280;58442;52.716;23.560;2023-09-19T01:11:13;100953.98;;;17.36;75.67
70521;BME280;58442;52.716;23.560;2023-09-19T01:13:34;100952.41;;;17.35;75.68
70521;BME280;58442;52.716;23.560;2023-09-19T01:18:21;100958.32;;;17.30;75.77
70521;BME280;58442;52.716;23.560;2023-09-19T01:32:21;100944.13;;;17.20;75.97
70521;BME280;58442;52.716;23.560;2023-09-19T01:34:23;100939.82;;;17.19;76.00
70521;BME280;58442;52.716;23.560;2023-09-19T01:36:34;100932.36;;;17.20;76.23
70521;BME280;58442;52.716;23.560;2023-09-19T01:38:31;100927.26;;;17.18;76.01
70521;BME280;58442;52.716;23.560;2023-09-19T01:40:41;100925.70;;;17.17;76.02
70521;BME280;58442;52.716;23.560;2023-09-19T01:42:59;100921.38;;;17.16;76.02
70521;BME280;58442;52.716;23.560;2023-09-19T01:45:11;100919.41;;;17.17;76.01
70521;BME280;58442;52.716;23.560;2023-09-19T01:52:05;100909.98;;;17.11;76.14
70521;BME280;58442;52.716;23.560;2023-09-19T01:56:08;100899.38;;;17.09;76.14
70521;BME280;58442;52.716;23.560;2023-09-19T02:00:44;100905.24;;;17.08;76.17
70521;BME280;58442;52.716;23.560;2023-09-19T02:02:48;100900.14;;;17.06;76.22
70521;BME280;58442;52.716;23.560;2023-09-19T02:04:50;100907.60;;;17.06;76.22
70521;BME280;58442;52.716;23.560;2023-09-19T02:06:51;100903.67;;;17.07;76.26
70521;BME280;58442;52.716;23.560;2023-09-19T02:08:57;100905.63;;;17.06;76.23
70521;BME280;58442;52.716;23.560;2023-09-19T02:11:00;100907.60;;;17.06;76.20
70521;BME280;58442;52.716;23.560;2023-09-19T02:13:02;100911.13;;;17.06;76.27
70521;BME280;58442;52.716;23.560;2023-09-19T02:15:07;100907.99;;;17.04;76.28
70521;BME280;58442;52.716;23.560;2023-09-19T02:17:12;100901.71;;;17.04;76.32
70521;BME280;58442;52.716;23.560;2023-09-19T02:19:13;100898.55;;;17.02;76.37
70521;BME280;58442;52.716;23.560;2023-09-19T02:21:15;100896.61;;;17.02;76.38
70521;BME280;58442;52.716;23.560;2023-09-19T02:23:18;100896.61;;;17.02;76.32
70521;BME280;58442;52.716;23.560;2023-09-19T02:25:27;100902.89;;;17.03;76.31
70521;BME280;58442;52.716;23.560;2023-09-19T02:27:28;100892.69;;;17.03;76.29
70521;BME280;58442;52.716;23.560;2023-09-19T02:29:32;100898.19;;;17.03;76.29
70521;BME280;58442;52.716;23.560;2023-09-19T02:31:35;100899.36;;;17.02;76.26
70521;BME280;58442;52.716;23.560;2023-09-19T02:33:42;100894.23;;;17.01;76.29
70521;BME280;58442;52.716;23.560;2023-09-19T02:35:44;100890.70;;;17.00;76.32
70521;BME280;58442;52.716;23.560;2023-09-19T02:37:47;100898.94;;;17.00;76.34
70521;BME280;58442;52.716;23.560;2023-09-19T02:39:49;100893.45;;;17.00;76.30
70521;BME280;58442;52.716;23.560;2023-09-19T02:41:56;100892.27;;;17.01;76.27
70521;BME280;58442;52.716;23.560;2023-09-19T02:43:58;100893.45;;;17.00;76.26
70521;BME280;58442;52.716;23.560;2023-09-19T02:46:00;100887.17;;;17.00;76.31
70521;BME280;58442;52.716;23.560;2023-09-19T02:48:04;100897.38;;;16.99;76.33
70521;BME280;58442;52.716;23.560;2023-09-19T02:50:12;100899.73;;;16.97;76.37
70521;BME280;58442;52.716;23.560;2023-09-19T02:52:16;100889.13;;;16.95;76.39
70521;BME280;58442;52.716;23.560;2023-09-19T02:54:17;100887.18;;;16.96;76.38
70521;BME280;58442;52.716;23.560;2023-09-19T02:56:20;100887.18;;;16.96;76.35
70521;BME280;58442;52.716;23.560;2023-09-19T02:58:26;100885.61;;;16.95;76.38
70521;BME280;58442;52.716;23.560;2023-09-19T03:00:31;100883.23;;;16.93;76.36
70521;BME280;58442;52.716;23.560;2023-09-19T03:02:32;100875.38;;;16.92;76.40
70521;BME280;58442;52.716;23.560;2023-09-19T03:04:36;100867.15;;;16.92;76.42
70521;BME280;58442;52.716;23.560;2023-09-19T03:06:41;100862.83;;;16.91;76.39
70521;BME280;58442;52.716;23.560;2023-09-19T03:08:43;100861.66;;;16.88;76.39
70521;BME280;58442;52.716;23.560;2023-09-19T03:10:48;100854.20;;;16.89;76.41
70521;BME280;58442;52.716;23.560;2023-09-19T03:12:50;100859.67;;;16.85;76.59
70521;BME280;58442;52.716;23.560;2023-09-19T03:14:55;100861.23;;;16.86;76.45
70521;BME280;58442;52.716;23.560;2023-09-19T03:16:57;100851.83;;;16.84;76.49
70521;BME280;58442;52.716;23.560;2023-09-19T03:18:59;100861.23;;;16.83;76.55
70521;BME280;58442;52.716;23.560;2023-09-19T03:21:01;100849.48;;;16.82;76.55
70521;BME280;58442;52.716;23.560;2023-09-19T03:23:10;100852.22;;;16.82;76.57
70521;BME280;58442;52.716;23.560;2023-09-19T03:25:14;100851.44;;;16.82;76.54
70521;BME280;58442;52.716;23.560;2023-09-19T03:27:18;100847.09;;;16.81;76.59
70521;BME280;58442;52.716;23.560;2023-09-19T03:29:19;100848.67;;;16.78;76.65
70521;BME280;58442;52.716;23.560;2023-09-19T03:31:25;100849.05;;;16.77;76.75
70521;BME280;58442;52.716;23.560;2023-09-19T03:33:26;100845.53;;;16.76;76.75
70521;BME280;58442;52.716;23.560;2023-09-19T03:35:28;100842.37;;;16.74;76.86
70521;BME280;58442;52.716;23.560;2023-09-19T03:37:29;100842.37;;;16.74;76.78
70521;BME280;58442;52.716;23.560;2023-09-19T03:39:40;100840.80;;;16.73;76.84
70521;BME280;58442;52.716;23.560;2023-09-19T03:41:41;100840.02;;;16.73;76.87
70521;BME280;58442;52.716;23.560;2023-09-19T03:43:43;100841.58;;;16.74;76.87
70521;BME280;58442;52.716;23.560;2023-09-19T03:45:44;100852.55;;;16.74;76.85
70521;BME280;58442;52.716;23.560;2023-09-19T03:47:54;100838.48;;;16.75;76.81
70521;BME280;58442;52.716;23.560;2023-09-19T03:49:56;100832.20;;;16.75;76.80
70521;BME280;58442;52.716;23.560;2023-09-19T03:51:57;100838.48;;;16.75;76.75
70521;BME280;58442;52.716;23.560;2023-09-19T03:53:58;100831.38;;;16.74;76.74
70521;BME280;58442;52.716;23.560;2023-09-19T03:56:09;100829.03;;;16.73;76.81
70521;BME280;58442;52.716;23.560;2023-09-19T03:58:11;100832.17;;;16.71;76.88
70521;BME280;58442;52.716;23.560;2023-09-19T04:00:13;100826.69;;;16.71;76.86
70521;BME280;58442;52.716;23.560;2023-09-19T04:02:20;100819.63;;;16.70;76.88
70521;BME280;58442;52.716;23.560;2023-09-19T04:04:25;100815.70;;;16.71;76.92
70521;BME280;58442;52.716;23.560;2023-09-19T04:06:27;100822.76;;;16.72;76.95
70521;BME280;58442;52.716;23.560;2023-09-19T04:08:28;100813.74;;;16.72;76.91
70521;BME280;58442;52.716;23.560;2023-09-19T04:10:30;100809.03;;;16.72;76.87
70521;BME280;58442;52.716;23.560;2023-09-19T04:12:39;100816.09;;;16.73;76.91
70521;BME280;58442;52.716;23.560;2023-09-19T04:14:40;100814.13;;;16.74;76.94
70521;BME280;58442;52.716;23.560;2023-09-19T04:16:41;100816.52;;;16.75;76.93
70521;BME280;58442;52.716;23.560;2023-09-19T04:18:43;100815.73;;;16.75;76.92
70521;BME280;58442;52.716;23.560;2023-09-19T04:20:53;100806.32;;;16.76;76.92
70521;BME280;58442;52.716;23.560;2023-09-19T04:22:56;100814.16;;;16.77;76.91
70521;BME280;58442;52.716;23.560;2023-09-19T04:24:57;100801.61;;;16.76;76.92
70521;BME280;58442;52.716;23.560;2023-09-19T04:26:59;100811.41;;;16.77;76.94
70521;BME280;58442;52.716;23.560;2023-09-19T04:29:08;100804.36;;;16.76;77.00
70521;BME280;58442;52.716;23.560;2023-09-19T04:31:14;100801.61;;;16.76;77.04
70521;BME280;58442;52.716;23.560;2023-09-19T04:33:15;100802.39;;;16.77;77.08
70521;BME280;58442;52.716;23.560;2023-09-19T04:35:17;100797.69;;;16.77;77.07
70521;BME280;58442;52.716;23.560;2023-09-19T04:37:23;100806.31;;;16.79;77.10
70521;BME280;58442;52.716;23.560;2023-09-19T04:39:24;100795.34;;;16.79;77.11
70521;BME280;58442;52.716;23.560;2023-09-19T04:41:26;100790.23;;;16.81;77.12
70521;BME280;58442;52.716;23.560;2023-09-19T04:43:29;100796.14;;;16.83;77.12
70521;BME280;58442;52.716;23.560;2023-09-19T04:45:39;100792.61;;;16.83;77.15
70521;BME280;58442;52.716;23.560;2023-09-19T04:47:43;100791.43;;;16.84;77.17
70521;BME280;58442;52.716;23.560;2023-09-19T04:49:45;100796.53;;;16.85;77.18
70521;BME280;58442;52.716;23.560;2023-09-19T04:51:46;100789.86;;;16.86;77.17
70521;BME280;58442;52.716;23.560;2023-09-19T04:53:53;100788.69;;;16.87;77.18
70521;BME280;58442;52.716;23.560;2023-09-19T04:55:54;100796.55;;;16.89;77.22
70521;BME280;58442;52.716;23.560;2023-09-19T04:57:57;100791.45;;;16.91;77.19
70521;BME280;58442;52.716;23.560;2023-09-19T04:59:58;100791.05;;;16.92;77.20
70521;BME280;58442;52.716;23.560;2023-09-19T05:02:07;100793.04;;;16.95;77.22
70521;BME280;58442;52.716;23.560;2023-09-19T05:04:13;100789.89;;;16.97;77.23
70521;BME280;58442;52.716;23.560;2023-09-19T05:06:14;100778.13;;;17.00;77.24
70521;BME280;58442;52.716;23.560;2023-09-19T05:08:16;100779.68;;;17.01;77.20
70521;BME280;58442;52.716;23.560;2023-09-19T05:10:22;100771.09;;;17.03;77.21
70521;BME280;58442;52.716;23.560;2023-09-19T05:12:23;100769.51;;;17.05;77.23
70521;BME280;58442;52.716;23.560;2023-09-19T05:14:27;100773.03;;;17.06;77.25
70521;BME280;58442;52.716;23.560;2023-09-19T05:16:29;100772.27;;;17.09;77.25
70521;BME280;58442;52.716;23.560;2023-09-19T05:18:37;100769.91;;;17.11;77.29
70521;BME280;58442;52.716;23.560;2023-09-19T05:20:38;100780.50;;;17.12;77.28
70521;BME280;58442;52.716;23.560;2023-09-19T05:22:40;100772.65;;;17.14;77.32
70521;BME280;58442;52.716;23.560;2023-09-19T05:24:42;100771.09;;;17.17;77.30
70521;BME280;58442;52.716;23.560;2023-09-19T05:26:51;100764.80;;;17.20;77.30
70521;BME280;58442;52.716;23.560;2023-09-19T05:28:53;100762.45;;;17.22;77.47
70521;BME280;58442;52.716;23.560;2023-09-19T05:30:55;100756.18;;;17.25;77.31
70521;BME280;58442;52.716;23.560;2023-09-19T05:32:56;100759.32;;;17.27;77.33
70521;BME280;58442;52.716;23.560;2023-09-19T05:35:06;100751.46;;;17.29;77.36
70521;BME280;58442;52.716;23.560;2023-09-19T05:37:10;100758.53;;;17.34;77.41
70521;BME280;58442;52.716;23.560;2023-09-19T05:39:11;100756.58;;;17.38;77.38
70521;BME280;58442;52.716;23.560;2023-09-19T05:41:13;100756.18;;;17.39;77.40
70521;BME280;58442;52.716;23.560;2023-09-19T05:43:21;100754.23;;;17.43;77.42
70521;BME280;58442;52.716;23.560;2023-09-19T05:45:22;100756.18;;;17.46;77.44
70521;BME280;58442;52.716;23.560;2023-09-19T05:47:24;100753.04;;;17.52;77.45
70521;BME280;58442;52.716;23.560;2023-09-19T05:49:26;100740.06;;;17.56;77.44
70521;BME280;58442;52.716;23.560;2023-09-19T05:51:36;100740.86;;;17.60;77.44
70521;BME280;58442;52.716;23.560;2023-09-19T05:53:37;100738.90;;;17.64;77.48
70521;BME280;58442;52.716;23.560;2023-09-19T05:55:38;100737.29;;;17.70;77.51
70521;BME280;58442;52.716;23.560;2023-09-19T05:57:40;100734.17;;;17.75;77.50
70521;BME280;58442;52.716;23.560;2023-09-19T05:59:51;100732.59;;;17.81;77.49
70521;BME280;58442;52.716;23.560;2023-09-19T06:01:52;100726.70;;;17.86;77.49
70521;BME280;58442;52.716;23.560;2023-09-19T06:03:54;100727.86;;;17.92;77.48
70521;BME280;58442;52.716;23.560;2023-09-19T06:05:55;100725.46;;;17.98;77.43
70521;BME280;58442;52.716;23.560;2023-09-19T06:08:05;100720.34;;;18.03;77.43
70521;BME280;58442;52.716;23.560;2023-09-19T06:10:09;100721.13;;;18.08;77.44
70521;BME280;58442;52.716;23.560;2023-09-19T06:12:11;100721.10;;;18.15;77.39
70521;BME280;58442;52.716;23.560;2023-09-19T06:14:18;100722.26;;;18.21;77.34
70521;BME280;58442;52.716;23.560;2023-09-19T06:16:20;100724.19;;;18.27;77.31
70521;BME280;58442;52.716;23.560;2023-09-19T06:18:21;100722.98;;;18.32;77.28
70521;BME280;58442;52.716;23.560;2023-09-19T06:20:28;100711.55;;;18.37;77.23
70521;BME280;58442;52.716;23.560;2023-09-19T06:22:30;100707.61;;;18.42;77.21
70521;BME280;58442;52.716;23.560;2023-09-19T06:24:35;100711.92;;;18.46;77.18
70521;BME280;58442;52.716;23.560;2023-09-19T06:26:36;100718.55;;;18.52;77.14
70521;BME280;58442;52.716;23.560;2023-09-19T06:28:37;100721.26;;;18.59;77.09
70521;BME280;58442;52.716;23.560;2023-09-19T06:30:39;100719.65;;;18.66;76.99
70521;BME280;58442;52.716;23.560;2023-09-19T06:32:55;100714.13;;;18.73;76.91
70521;BME280;58442;52.716;23.560;2023-09-19T06:34:57;100714.48;;;18.78;76.86
70521;BME280;58442;52.716;23.560;2023-09-19T06:36:59;100716.82;;;18.83;76.79
70521;BME280;58442;52.716;23.560;2023-09-19T06:39:01;100724.25;;;18.90;76.75
70521;BME280;58442;52.716;23.560;2023-09-19T06:41:05;100707.30;;;18.95;76.66
70521;BME280;58442;52.716;23.560;2023-09-19T06:43:10;100714.73;;;19.02;76.59
70521;BME280;58442;52.716;23.560;2023-09-19T06:45:13;100717.43;;;19.09;76.50
70521;BME280;58442;52.716;23.560;2023-09-19T06:47:19;100715.39;;;19.17;76.39
70521;BME280;58442;52.716;23.560;2023-09-19T06:49:21;100711.38;;;19.25;76.27
70521;BME280;58442;52.716;23.560;2023-09-19T06:51:23;100715.64;;;19.33;76.15
70521;BME280;58442;52.716;23.560;2023-09-19T06:53:25;100719.10;;;19.40;76.01
70521;BME280;58442;52.716;23.560;2023-09-19T06:55:26;100715.09;;;19.49;75.87
70521;BME280;58442;52.716;23.560;2023-09-19T06:57:34;100713.07;;;19.56;75.76
70521;BME280;58442;52.716;23.560;2023-09-19T06:59:35;100717.34;;;19.64;75.66
70521;BME280;58442;52.716;23.560;2023-09-19T07:01:39;100718.41;;;19.74;75.58
70521;BME280;58442;52.716;23.560;2023-09-19T07:03:41;100719.13;;;19.82;75.46
70521;BME280;58442;52.716;23.560;2023-09-19T07:05:48;100717.84;;;19.90;75.33
70521;BME280;58442;52.716;23.560;2023-09-19T07:07:50;100722.89;;;19.99;75.23
70521;BME280;58442;52.716;23.560;2023-09-19T07:09:51;100712.18;;;20.04;75.10
70521;BME280;58442;52.716;23.560;2023-09-19T07:11:55;100718.39;;;20.12;75.00
70521;BME280;58442;52.716;23.560;2023-09-19T07:14:03;100720.28;;;20.18;74.86
70521;BME280;58442;52.716;23.560;2023-09-19T07:16:06;100721.79;;;20.23;74.72
70521;BME280;58442;52.716;23.560;2023-09-19T07:18:11;100721.33;;;20.28;74.62
70521;BME280;58442;52.716;23.560;2023-09-19T07:20:13;100727.60;;;20.32;74.49
70521;BME280;58442;52.716;23.560;2023-09-19T07:22:18;100720.82;;;20.37;74.39
70521;BME280;58442;52.716;23.560;2023-09-19T07:24:19;100730.27;;;20.39;74.30
70521;BME280;58442;52.716;23.560;2023-09-19T07:26:24;100724.30;;;20.44;74.20
70521;BME280;58442;52.716;23.560;2023-09-19T07:28:27;100725.04;;;20.48;74.13
70521;BME280;58442;52.716;23.560;2023-09-19T07:30:36;100723.42;;;20.51;74.03
70521;BME280;58442;52.716;23.560;2023-09-19T07:32:38;100720.62;;;20.55;73.93
70521;BME280;58442;52.716;23.560;2023-09-19T07:34:41;100727.28;;;20.57;73.82
70521;BME280;58442;52.716;23.560;2023-09-19T07:36:42;100724.91;;;20.59;73.75
70521;BME280;58442;52.716;23.560;2023-09-19T07:38:47;100727.25;;;20.61;73.69
70521;BME280;58442;52.716;23.560;2023-09-19T07:40:49;100735.12;;;20.62;73.64
70521;BME280;58442;52.716;23.560;2023-09-19T07:42:51;100734.27;;;20.65;73.54
70521;BME280;58442;52.716;23.560;2023-09-19T07:44:52;100729.13;;;20.67;73.46
70521;BME280;58442;52.716;23.560;2023-09-19T07:47:02;100730.68;;;20.68;73.37
70521;BME280;58442;52.716;23.560;2023-09-19T07:49:04;100725.52;;;20.70;73.28
70521;BME280;58442;52.716;23.560;2023-09-19T07:51:07;100724.31;;;20.71;73.25
70521;BME280;58442;52.716;23.560;2023-09-19T07:53:09;100729.80;;;20.75;73.09
70521;BME280;58442;52.716;23.560;2023-09-19T07:55:17;100721.87;;;20.77;72.99
70521;BME280;58442;52.716;23.560;2023-09-19T07:57:24;100723.03;;;20.80;72.90
70521;BME280;58442;52.716;23.560;2023-09-19T07:59:26;100728.49;;;20.83;72.76
70521;BME280;58442;52.716;23.560;2023-09-19T08:01:27;100732.77;;;20.88;72.72
70521;BME280;58442;52.716;23.560;2023-09-19T08:03:32;100722.81;;;20.94;72.60
70521;BME280;58442;52.716;23.560;2023-09-19T08:05:34;100719.55;;;20.99;72.49
70521;BME280;58442;52.716;23.560;2023-09-19T08:07:43;100716.33;;;21.04;72.38
70521;BME280;58442;52.716;23.560;2023-09-19T08:09:44;100716.20;;;21.11;72.24
70521;BME280;58442;52.716;23.560;2023-09-19T08:11:47;100725.16;;;21.19;72.09
70521;BME280;58442;52.716;23.560;2023-09-19T08:13:49;100713.58;;;21.27;71.91
70521;BME280;58442;52.716;23.560;2023-09-19T08:15:50;100707.88;;;21.38;71.71
70521;BME280;58442;52.716;23.560;2023-09-19T08:17:53;100713.28;;;21.45;71.55
70521;BME280;58442;52.716;23.560;2023-09-19T08:20:01;100707.20;;;21.54;71.33
70521;BME280;58442;52.716;23.560;2023-09-19T08:22:06;100705.80;;;21.66;71.17
70521;BME280;58442;52.716;23.560;2023-09-19T08:24:07;100697.66;;;21.78;70.87
70521;BME280;58442;52.716;23.560;2023-09-19T08:26:10;100708.11;;;21.91;70.65
70521;BME280;58442;52.716;23.560;2023-09-19T08:28:15;100694.04;;;22.01;70.42
70521;BME280;58442;52.716;23.560;2023-09-19T08:30:25;100684.39;;;22.09;70.17
70521;BME280;58442;52.716;23.560;2023-09-19T08:32:31;100696.81;;;22.21;70.01
70521;BME280;58442;52.716;23.560;2023-09-19T08:34:32;100700.14;;;22.32;69.76
70521;BME280;58442;52.716;23.560;2023-09-19T08:36:39;100690.46;;;22.41;69.63
70521;BME280;58442;52.716;23.560;2023-09-19T08:38:44;100687.81;;;22.53;69.57
70521;BME280;58442;52.716;23.560;2023-09-19T08:40:46;100697.06;;;22.63;69.15
70521;BME280;58442;52.716;23.560;2023-09-19T08:42:54;100697.11;;;22.79;68.81
70521;BME280;58442;52.716;23.560;2023-09-19T08:44:57;100704.84;;;22.88;68.53
70521;BME280;58442;52.716;23.560;2023-09-19T08:47:14;100694.29;;;22.99;68.21
70521;BME280;58442;52.716;23.560;2023-09-19T08:51:42;100699.63;;;23.23;67.53
70521;BME280;58442;52.716;23.560;2023-09-19T08:53:51;100706.88;;;23.33;67.29
70521;BME280;58442;52.716;23.560;2023-09-19T08:55:55;100691.53;;;23.44;67.04
70521;BME280;58442;52.716;23.560;2023-09-19T08:58:03;100709.45;;;23.56;66.81
70521;BME280;58442;52.716;23.560;2023-09-19T09:00:08;100700.44;;;23.68;66.43
70521;BME280;58442;52.716;23.560;2023-09-19T09:02:14;100700.57;;;23.78;66.07
70521;BME280;58442;52.716;23.560;2023-09-19T09:04:16;100697.16;;;23.86;65.80
70521;BME280;58442;52.716;23.560;2023-09-19T09:06:19;100687.84;;;23.93;65.58
70521;BME280;58442;52.716;23.560;2023-09-19T09:08:21;100685.31;;;23.98;65.38
70521;BME280;58442;52.716;23.560;2023-09-19T09:10:23;100692.20;;;24.07;65.12
70521;BME280;58442;52.716;23.560;2023-09-19T09:12:25;100685.57;;;24.17;64.86
70521;BME280;58442;52.716;23.560;2023-09-19T09:14:31;100683.13;;;24.19;64.75
70521;BME280;58442;52.716;23.560;2023-09-19T09:16:35;100688.23;;;24.20;64.56
70521;BME280;58442;52.716;23.560;2023-09-19T09:18:36;100684.14;;;24.25;64.42
70521;BME280;58442;52.716;23.560;2023-09-19T09:20:38;100684.79;;;24.29;64.36
70521;BME280;58442;52.716;23.560;2023-09-19T09:22:52;100683.80;;;24.23;64.48
70521;BME280;58442;52.716;23.560;2023-09-19T09:25:07;100683.13;;;24.19;64.55
70521;BME280;58442;52.716;23.560;2023-09-19T09:27:12;100685.91;;;24.19;64.45
70521;BME280;58442;52.716;23.560;2023-09-19T09:29:14;100680.73;;;24.34;64.05
70521;BME280;58442;52.716;23.560;2023-09-19T09:31:23;100679.51;;;24.47;63.71
70521;BME280;58442;52.716;23.560;2023-09-19T09:33:25;100675.51;;;24.61;63.49
70521;BME280;58442;52.716;23.560;2023-09-19T09:35:28;100671.16;;;24.73;63.26
70521;BME280;58442;52.716;23.560;2023-09-19T09:37:29;100677.49;;;24.86;62.92
70521;BME280;58442;52.716;23.560;2023-09-19T09:39:34;100678.89;;;25.03;62.51
70521;BME280;58442;52.716;23.560;2023-09-19T09:41:36;100672.80;;;25.08;62.36
70521;BME280;58442;52.716;23.560;2023-09-19T09:43:40;100681.92;;;25.09;62.25
70521;BME280;58442;52.716;23.560;2023-09-19T09:46:05;100688.93;;;25.14;61.97
70521;BME280;58442;52.716;23.560;2023-09-19T09:48:09;100695.80;;;25.22;61.82
70521;BME280;58442;52.716;23.560;2023-09-19T09:52:46;100700.38;;;25.50;61.08
70521;BME280;58442;52.716;23.560;2023-09-19T09:57:10;100697.03;;;25.55;60.97
70521;BME280;58442;52.716;23.560;2023-09-19T09:59:16;100703.82;;;25.54;60.95
70521;BME280;58442;52.716;23.560;2023-09-19T10:01:20;100700.13;;;25.57;60.77
70521;BME280;58442;52.716;23.560;2023-09-19T10:03:36;100702.59;;;25.55;60.77
70521;BME280;58442;52.716;23.560;2023-09-19T10:05:45;100707.19;;;25.49;60.78
70521;BME280;58442;52.716;23.560;2023-09-19T10:07:50;100696.95;;;25.46;60.77
70521;BME280;58442;52.716;23.560;2023-09-19T10:09:55;100697.14;;;25.52;60.58
70521;BME280;58442;52.716;23.560;2023-09-19T10:12:15;100700.52;;;25.47;60.59
70521;BME280;58442;52.716;23.560;2023-09-19T10:14:17;100694.04;;;25.50;60.39
70521;BME280;58442;52.716;23.560;2023-09-19T10:16:24;100692.80;;;25.51;60.28
70521;BME280;58442;52.716;23.560;2023-09-19T10:18:27;100689.77;;;25.58;60.09
70521;BME280;58442;52.716;23.560;2023-09-19T10:20:36;100684.60;;;25.69;59.86
70521;BME280;58442;52.716;23.560;2023-09-19T10:22:50;100688.60;;;25.81;59.61
70521;BME280;58442;52.716;23.560;2023-09-19T10:25:00;100689.88;;;25.89;59.36
70521;BME280;58442;52.716;23.560;2023-09-19T10:27:06;100690.51;;;25.93;59.22
70521;BME280;58442;52.716;23.560;2023-09-19T10:29:10;100684.63;;;25.91;59.09
70521;BME280;58442;52.716;23.560;2023-09-19T10:31:19;100689.42;;;25.90;59.07
70521;BME280;58442;52.716;23.560;2023-09-19T10:33:36;100687.88;;;25.89;58.97
70521;BME280;58442;52.716;23.560;2023-09-19T10:35:43;100689.88;;;25.89;58.77
70521;BME280;58442;52.716;23.560;2023-09-19T10:37:47;100683.97;;;25.87;58.73
70521;BME280;58442;52.716;23.560;2023-09-19T10:39:54;100680.24;;;25.81;58.74
70521;BME280;58442;52.716;23.560;2023-09-19T10:42:02;100686.39;;;25.76;58.78
70521;BME280;58442;52.716;23.560;2023-09-19T10:44:11;100684.28;;;25.67;58.79
70521;BME280;58442;52.716;23.560;2023-09-19T10:46:14;100680.19;;;25.59;58.77
70521;BME280;58442;52.716;23.560;2023-09-19T10:48:17;100683.43;;;25.57;58.78
70521;BME280;58442;52.716;23.560;2023-09-19T10:50:21;100682.80;;;25.53;58.84
70521;BME280;58442;52.716;23.560;2023-09-19T10:52:27;100686.46;;;25.50;58.88
70521;BME280;58442;52.716;23.560;2023-09-19T10:54:33;100690.27;;;25.44;58.85
70521;BME280;58442;52.716;23.560;2023-09-19T10:56:46;100682.95;;;25.37;58.86
70521;BME280;58442;52.716;23.560;2023-09-19T10:58:51;100689.08;;;25.32;58.88
70521;BME280;58442;52.716;23.560;2023-09-19T11:00:54;100687.20;;;25.29;58.97
70521;BME280;58442;52.716;23.560;2023-09-19T11:05:26;100690.91;;;25.26;58.91
70521;BME280;58442;52.716;23.560;2023-09-19T11:07:30;100689.33;;;25.25;58.86
70521;BME280;58442;52.716;23.560;2023-09-19T11:11:54;100694.00;;;25.28;58.79
70521;BME280;58442;52.716;23.560;2023-09-19T11:16:18;100684.54;;;25.25;58.82
70521;BME280;58442;52.716;23.560;2023-09-19T11:20:49;100694.57;;;25.23;58.86
70521;BME280;58442;52.716;23.560;2023-09-19T11:27:23;100693.34;;;25.24;58.72